sensor_id;sensor_type;location;lat;lon;timestamp;temperature;humidity
73149;SHT30;61346;48.930;2.266;2023-02-12T00:01:12;10.99;72.02
73149;SHT30;61346;48.930;2.266;2023-02-12T00:03:39;10.99;71.95
73149;SHT30;61346;48.930;2.266;2023-02-12T00:06:06;10.99;72.16
73149;SHT30;61346;48.930;2.266;2023-02-12T00:08:32;10.99;72.14
73149;SHT30;61346;48.930;2.266;2023-02-12T00:10:58;10.97;72.30
73149;SHT30;61346;48.930;2.266;2023-02-12T00:13:23;10.97;72.14
73149;SHT30;61346;48.930;2.266;2023-02-12T00:15:49;10.96;72.19
73149;SHT30;61346;48.930;2.266;2023-02-12T00:18:15;10.95;72.15
73149;SHT30;61346;48.930;2.266;2023-02-12T00:20:41;10.96;72.31
73149;SHT30;61346;48.930;2.266;2023-02-12T00:23:06;10.96;72.26
73149;SHT30;61346;48.930;2.266;2023-02-12T00:25:32;10.96;72.30
73149;SHT30;61346;48.930;2.266;2023-02-12T00:27:57;10.95;72.12
73149;SHT30;61346;48.930;2.266;2023-02-12T00:30:23;10.96;72.24
73149;SHT30;61346;48.930;2.266;2023-02-12T00:32:48;10.96;72.25
73149;SHT30;61346;48.930;2.266;2023-02-12T00:35:14;10.96;72.41
73149;SHT30;61346;48.930;2.266;2023-02-12T00:37:40;10.92;72.07
73149;SHT30;61346;48.930;2.266;2023-02-12T00:40:06;10.93;72.05
73149;SHT30;61346;48.930;2.266;2023-02-12T00:42:31;10.95;72.04
73149;SHT30;61346;48.930;2.266;2023-02-12T00:44:57;10.92;72.11
73149;SHT30;61346;48.930;2.266;2023-02-12T00:47:22;10.92;72.14
73149;SHT30;61346;48.930;2.266;2023-02-12T00:49:48;10.90;72.12
73149;SHT30;61346;48.930;2.266;2023-02-12T00:52:13;10.90;72.11
73149;SHT30;61346;48.930;2.266;2023-02-12T00:54:38;10.93;72.11
73149;SHT30;61346;48.930;2.266;2023-02-12T00:57:04;10.93;72.08
73149;SHT30;61346;48.930;2.266;2023-02-12T00:59:29;10.95;72.22
73149;SHT30;61346;48.930;2.266;2023-02-12T01:01:55;10.92;72.23
73149;SHT30;61346;48.930;2.266;2023-02-12T01:04:21;10.97;72.36
73149;SHT30;61346;48.930;2.266;2023-02-12T01:06:47;10.95;72.20
73149;SHT30;61346;48.930;2.266;2023-02-12T01:09:12;10.96;72.11
73149;SHT30;61346;48.930;2.266;2023-02-12T01:11:39;10.92;72.34
73149;SHT30;61346;48.930;2.266;2023-02-12T01:14:04;10.90;72.48
73149;SHT30;61346;48.930;2.266;2023-02-12T01:16:30;10.89;72.43
73149;SHT30;61346;48.930;2.266;2023-02-12T01:19:01;10.88;72.41
73149;SHT30;61346;48.930;2.266;2023-02-12T01:21:30;10.88;72.61
73149;SHT30;61346;48.930;2.266;2023-02-12T01:23:56;10.88;72.54
73149;SHT30;61346;48.930;2.266;2023-02-12T01:26:24;10.86;72.67
73149;SHT30;61346;48.930;2.266;2023-02-12T01:28:52;10.84;72.84
73149;SHT30;61346;48.930;2.266;2023-02-12T01:31:21;10.83;72.89
73149;SHT30;61346;48.930;2.266;2023-02-12T01:33:48;10.80;72.87
73149;SHT30;61346;48.930;2.266;2023-02-12T01:36:14;10.79;72.86
73149;SHT30;61346;48.930;2.266;2023-02-12T01:38:39;10.77;73.05
73149;SHT30;61346;48.930;2.266;2023-02-12T01:41:16;10.77;72.88
73149;SHT30;61346;48.930;2.266;2023-02-12T01:43:42;10.77;73.00
73149;SHT30;61346;48.930;2.266;2023-02-12T01:46:12;10.77;72.79
73149;SHT30;61346;48.930;2.266;2023-02-12T01:48:40;10.76;72.75
73149;SHT30;61346;48.930;2.266;2023-02-12T01:51:08;10.77;72.91
73149;SHT30;61346;48.930;2.266;2023-02-12T01:53:38;10.76;72.81
73149;SHT30;61346;48.930;2.266;2023-02-12T01:56:06;10.76;73.06
73149;SHT30;61346;48.930;2.266;2023-02-12T01:58:36;10.73;72.70
73149;SHT30;61346;48.930;2.266;2023-02-12T02:01:05;10.71;72.73
73149;SHT30;61346;48.930;2.266;2023-02-12T02:03:32;10.69;72.71
73149;SHT30;61346;48.930;2.266;2023-02-12T02:06:03;10.72;72.54
73149;SHT30;61346;48.930;2.266;2023-02-12T02:08:31;10.68;72.50
73149;SHT30;61346;48.930;2.266;2023-02-12T02:10:57;10.68;72.51
73149;SHT30;61346;48.930;2.266;2023-02-12T02:13:23;10.71;72.45
73149;SHT30;61346;48.930;2.266;2023-02-12T02:16:17;10.69;72.42
73149;SHT30;61346;48.930;2.266;2023-02-12T02:18:52;10.71;72.43
73149;SHT30;61346;48.930;2.266;2023-02-12T02:27:48;10.72;72.09
73149;SHT30;61346;48.930;2.266;2023-02-12T02:30:44;10.73;71.92
73149;SHT30;61346;48.930;2.266;2023-02-12T02:36:26;10.73;71.81
73149;SHT30;61346;48.930;2.266;2023-02-12T02:41:41;10.71;71.67
73149;SHT30;61346;48.930;2.266;2023-02-12T02:44:16;10.69;71.77
73149;SHT30;61346;48.930;2.266;2023-02-12T02:46:49;10.71;71.75
73149;SHT30;61346;48.930;2.266;2023-02-12T02:49:20;10.73;71.79
73149;SHT30;61346;48.930;2.266;2023-02-12T02:51:55;10.72;71.71
73149;SHT30;61346;48.930;2.266;2023-02-12T02:54:29;10.73;71.74
73149;SHT30;61346;48.930;2.266;2023-02-12T02:57:05;10.76;71.69
73149;SHT30;61346;48.930;2.266;2023-02-12T02:59:36;10.80;71.63
73149;SHT30;61346;48.930;2.266;2023-02-12T03:02:08;10.80;71.64
73149;SHT30;61346;48.930;2.266;2023-02-12T03:04:43;10.84;71.46
73149;SHT30;61346;48.930;2.266;2023-02-12T03:07:20;10.86;71.56
73149;SHT30;61346;48.930;2.266;2023-02-12T03:09:49;10.89;71.33
73149;SHT30;61346;48.930;2.266;2023-02-12T03:12:26;10.89;71.42
73149;SHT30;61346;48.930;2.266;2023-02-12T03:15:00;10.88;71.46
73149;SHT30;61346;48.930;2.266;2023-02-12T03:17:31;10.93;71.36
73149;SHT30;61346;48.930;2.266;2023-02-12T03:20:03;10.89;71.12
73149;SHT30;61346;48.930;2.266;2023-02-12T03:22:36;10.89;71.29
73149;SHT30;61346;48.930;2.266;2023-02-12T03:25:13;10.93;71.28
73149;SHT30;61346;48.930;2.266;2023-02-12T03:27:53;10.95;71.29
73149;SHT30;61346;48.930;2.266;2023-02-12T03:30:23;10.96;71.31
73149;SHT30;61346;48.930;2.266;2023-02-12T03:33:15;10.99;71.21
73149;SHT30;61346;48.930;2.266;2023-02-12T03:36:05;11.03;71.13
73149;SHT30;61346;48.930;2.266;2023-02-12T03:38:43;11.01;71.08
73149;SHT30;61346;48.930;2.266;2023-02-12T03:41:24;11.06;71.09
73149;SHT30;61346;48.930;2.266;2023-02-12T03:43:56;11.06;71.03
73149;SHT30;61346;48.930;2.266;2023-02-12T03:46:35;11.06;71.02
73149;SHT30;61346;48.930;2.266;2023-02-12T03:49:22;11.07;71.03
73149;SHT30;61346;48.930;2.266;2023-02-12T03:51:48;11.04;70.93
73149;SHT30;61346;48.930;2.266;2023-02-12T03:54:18;11.03;71.05
73149;SHT30;61346;48.930;2.266;2023-02-12T03:59:20;11.10;71.09
73149;SHT30;61346;48.930;2.266;2023-02-12T04:01:46;11.09;71.02
73149;SHT30;61346;48.930;2.266;2023-02-12T04:04:13;11.06;70.98
73149;SHT30;61346;48.930;2.266;2023-02-12T04:06:40;11.04;70.99
73149;SHT30;61346;48.930;2.266;2023-02-12T04:09:08;11.06;70.97
73149;SHT30;61346;48.930;2.266;2023-02-12T04:17:21;11.03;71.20
73149;SHT30;61346;48.930;2.266;2023-02-12T04:19:59;11.07;71.17
73149;SHT30;61346;48.930;2.266;2023-02-12T04:28:33;11.03;71.28
73149;SHT30;61346;48.930;2.266;2023-02-12T04:31:49;11.04;71.31
73149;SHT30;61346;48.930;2.266;2023-02-12T04:36:33;11.03;71.50
73149;SHT30;61346;48.930;2.266;2023-02-12T04:39:02;11.04;71.54
73149;SHT30;61346;48.930;2.266;2023-02-12T04:41:30;11.03;71.62
73149;SHT30;61346;48.930;2.266;2023-02-12T04:43:56;10.99;71.50
73149;SHT30;61346;48.930;2.266;2023-02-12T04:46:21;11.00;71.60
73149;SHT30;61346;48.930;2.266;2023-02-12T04:49:12;11.00;71.70
73149;SHT30;61346;48.930;2.266;2023-02-12T04:51:38;11.01;71.69
73149;SHT30;61346;48.930;2.266;2023-02-12T04:54:03;11.00;71.74
73149;SHT30;61346;48.930;2.266;2023-02-12T04:56:29;11.00;71.68
73149;SHT30;61346;48.930;2.266;2023-02-12T04:58:54;11.00;71.88
73149;SHT30;61346;48.930;2.266;2023-02-12T05:01:22;11.01;71.77
73149;SHT30;61346;48.930;2.266;2023-02-12T05:03:47;11.03;71.94
73149;SHT30;61346;48.930;2.266;2023-02-12T05:06:12;11.01;71.88
73149;SHT30;61346;48.930;2.266;2023-02-12T05:08:38;11.01;71.86
73149;SHT30;61346;48.930;2.266;2023-02-12T05:11:05;11.01;71.80
73149;SHT30;61346;48.930;2.266;2023-02-12T05:13:31;11.01;71.94
73149;SHT30;61346;48.930;2.266;2023-02-12T05:15:56;11.01;71.92
73149;SHT30;61346;48.930;2.266;2023-02-12T05:18:22;11.00;72.09
73149;SHT30;61346;48.930;2.266;2023-02-12T05:20:57;11.01;72.09
73149;SHT30;61346;48.930;2.266;2023-02-12T05:23:26;11.01;71.96
73149;SHT30;61346;48.930;2.266;2023-02-12T05:25:52;11.00;71.90
73149;SHT30;61346;48.930;2.266;2023-02-12T05:28:18;10.97;71.86
73149;SHT30;61346;48.930;2.266;2023-02-12T05:30:43;11.00;71.87
73149;SHT30;61346;48.930;2.266;2023-02-12T05:33:08;10.99;71.92
73149;SHT30;61346;48.930;2.266;2023-02-12T05:35:34;10.96;72.03
73149;SHT30;61346;48.930;2.266;2023-02-12T05:38:00;10.96;72.24
73149;SHT30;61346;48.930;2.266;2023-02-12T05:40:25;10.97;72.20
73149;SHT30;61346;48.930;2.266;2023-02-12T05:42:51;11.00;72.20
73149;SHT30;61346;48.930;2.266;2023-02-12T05:45:16;10.99;72.19
73149;SHT30;61346;48.930;2.266;2023-02-12T05:47:42;10.97;72.12
73149;SHT30;61346;48.930;2.266;2023-02-12T05:50:07;10.97;72.18
73149;SHT30;61346;48.930;2.266;2023-02-12T05:52:33;10.93;72.27
73149;SHT30;61346;48.930;2.266;2023-02-12T05:54:58;10.97;72.38
73149;SHT30;61346;48.930;2.266;2023-02-12T05:57:24;10.96;72.34
73149;SHT30;61346;48.930;2.266;2023-02-12T05:59:51;10.97;72.36
73149;SHT30;61346;48.930;2.266;2023-02-12T06:02:16;10.96;72.27
73149;SHT30;61346;48.930;2.266;2023-02-12T06:04:43;10.95;72.40
73149;SHT30;61346;48.930;2.266;2023-02-12T06:07:08;10.92;72.36
73149;SHT30;61346;48.930;2.266;2023-02-12T06:09:34;10.90;72.27
73149;SHT30;61346;48.930;2.266;2023-02-12T06:12:00;10.92;72.34
73149;SHT30;61346;48.930;2.266;2023-02-12T06:14:25;10.88;72.48
73149;SHT30;61346;48.930;2.266;2023-02-12T06:16:51;10.92;72.47
73149;SHT30;61346;48.930;2.266;2023-02-12T06:19:18;10.92;72.53
73149;SHT30;61346;48.930;2.266;2023-02-12T06:21:46;10.90;72.69
73149;SHT30;61346;48.930;2.266;2023-02-12T06:24:14;10.90;72.67
73149;SHT30;61346;48.930;2.266;2023-02-12T06:26:40;10.88;72.63
73149;SHT30;61346;48.930;2.266;2023-02-12T06:29:06;10.89;72.80
73149;SHT30;61346;48.930;2.266;2023-02-12T06:31:34;10.84;72.74
73149;SHT30;61346;48.930;2.266;2023-02-12T06:34:03;10.86;72.85
73149;SHT30;61346;48.930;2.266;2023-02-12T06:36:29;10.88;72.73
73149;SHT30;61346;48.930;2.266;2023-02-12T06:38:55;10.86;72.80
73149;SHT30;61346;48.930;2.266;2023-02-12T06:41:21;10.84;72.66
73149;SHT30;61346;48.930;2.266;2023-02-12T06:43:47;10.86;72.62
73149;SHT30;61346;48.930;2.266;2023-02-12T06:46:14;10.86;72.59
73149;SHT30;61346;48.930;2.266;2023-02-12T06:48:40;10.88;72.57
73149;SHT30;61346;48.930;2.266;2023-02-12T06:51:07;10.88;72.73
73149;SHT30;61346;48.930;2.266;2023-02-12T06:53:33;10.88;72.65
73149;SHT30;61346;48.930;2.266;2023-02-12T06:56:01;10.88;72.56
73149;SHT30;61346;48.930;2.266;2023-02-12T06:58:27;10.88;72.45
73149;SHT30;61346;48.930;2.266;2023-02-12T07:00:52;10.86;72.52
73149;SHT30;61346;48.930;2.266;2023-02-12T07:03:18;10.84;72.52
73149;SHT30;61346;48.930;2.266;2023-02-12T07:05:43;10.86;72.56
73149;SHT30;61346;48.930;2.266;2023-02-12T07:08:08;10.86;72.47
73149;SHT30;61346;48.930;2.266;2023-02-12T07:10:34;10.83;72.42
73149;SHT30;61346;48.930;2.266;2023-02-12T07:13:00;10.83;72.45
73149;SHT30;61346;48.930;2.266;2023-02-12T07:15:25;10.83;72.52
73149;SHT30;61346;48.930;2.266;2023-02-12T07:17:50;10.83;72.09
73149;SHT30;61346;48.930;2.266;2023-02-12T07:20:26;10.80;71.89
73149;SHT30;61346;48.930;2.266;2023-02-12T07:22:52;10.75;71.97
73149;SHT30;61346;48.930;2.266;2023-02-12T07:25:37;10.75;71.96
73149;SHT30;61346;48.930;2.266;2023-02-12T07:28:22;10.71;71.79
73149;SHT30;61346;48.930;2.266;2023-02-12T07:34:02;10.73;71.67
73149;SHT30;61346;48.930;2.266;2023-02-12T07:36:39;10.72;71.86
73149;SHT30;61346;48.930;2.266;2023-02-12T07:39:28;10.73;71.79
73149;SHT30;61346;48.930;2.266;2023-02-12T07:41:56;10.75;71.67
73149;SHT30;61346;48.930;2.266;2023-02-12T07:44:24;10.73;71.31
73149;SHT30;61346;48.930;2.266;2023-02-12T07:46:55;10.73;71.37
73149;SHT30;61346;48.930;2.266;2023-02-12T07:52:49;10.68;71.32
73149;SHT30;61346;48.930;2.266;2023-02-12T07:55:15;10.65;71.43
73149;SHT30;61346;48.930;2.266;2023-02-12T07:57:41;10.65;71.48
73149;SHT30;61346;48.930;2.266;2023-02-12T08:00:10;10.71;71.58
73149;SHT30;61346;48.930;2.266;2023-02-12T08:02:36;10.71;71.65
73149;SHT30;61346;48.930;2.266;2023-02-12T08:05:02;10.73;71.63
73149;SHT30;61346;48.930;2.266;2023-02-12T08:07:48;10.76;71.53
73149;SHT30;61346;48.930;2.266;2023-02-12T08:10:47;10.75;71.29
73149;SHT30;61346;48.930;2.266;2023-02-12T08:13:46;10.79;71.09
73149;SHT30;61346;48.930;2.266;2023-02-12T08:16:15;10.77;71.12
73149;SHT30;61346;48.930;2.266;2023-02-12T08:18:57;10.77;71.03
73149;SHT30;61346;48.930;2.266;2023-02-12T08:21:54;10.79;71.04
73149;SHT30;61346;48.930;2.266;2023-02-12T08:27:53;10.76;71.08
73149;SHT30;61346;48.930;2.266;2023-02-12T08:30:18;10.76;70.97
73149;SHT30;61346;48.930;2.266;2023-02-12T08:32:50;10.80;70.81
73149;SHT30;61346;48.930;2.266;2023-02-12T08:35:28;10.83;70.63
73149;SHT30;61346;48.930;2.266;2023-02-12T08:37:54;10.83;70.63
73149;SHT30;61346;48.930;2.266;2023-02-12T08:40:19;10.84;70.74
73149;SHT30;61346;48.930;2.266;2023-02-12T08:42:51;10.88;70.69
73149;SHT30;61346;48.930;2.266;2023-02-12T08:45:25;10.92;70.54
73149;SHT30;61346;48.930;2.266;2023-02-12T08:47:51;10.93;70.56
73149;SHT30;61346;48.930;2.266;2023-02-12T08:50:21;10.93;70.31
73149;SHT30;61346;48.930;2.266;2023-02-12T08:52:57;10.97;70.23
73149;SHT30;61346;48.930;2.266;2023-02-12T08:55:30;10.99;70.42
73149;SHT30;61346;48.930;2.266;2023-02-12T09:01:00;11.07;69.92
73149;SHT30;61346;48.930;2.266;2023-02-12T09:06:57;11.13;69.69
73149;SHT30;61346;48.930;2.266;2023-02-12T09:09:22;11.11;69.78
73149;SHT30;61346;48.930;2.266;2023-02-12T09:12:04;11.17;69.67
73149;SHT30;61346;48.930;2.266;2023-02-12T09:14:43;11.21;69.57
73149;SHT30;61346;48.930;2.266;2023-02-12T09:17:29;11.27;69.45
73149;SHT30;61346;48.930;2.266;2023-02-12T09:27:25;11.35;69.21
73149;SHT30;61346;48.930;2.266;2023-02-12T09:33:14;11.52;68.95
73149;SHT30;61346;48.930;2.266;2023-02-12T09:35:42;11.54;68.71
73149;SHT30;61346;48.930;2.266;2023-02-12T09:38:10;11.54;68.28
73149;SHT30;61346;48.930;2.266;2023-02-12T10:02:18;11.87;68.39
73149;SHT30;61346;48.930;2.266;2023-02-12T10:28:32;12.58;67.30
73149;SHT30;61346;48.930;2.266;2023-02-12T10:31:33;12.65;66.78
73149;SHT30;61346;48.930;2.266;2023-02-12T10:34:19;12.74;66.53
73149;SHT30;61346;48.930;2.266;2023-02-12T10:36:49;12.76;66.54
73149;SHT30;61346;48.930;2.266;2023-02-12T10:42:40;12.85;66.22
73149;SHT30;61346;48.930;2.266;2023-02-12T10:45:16;12.93;66.14
73149;SHT30;61346;48.930;2.266;2023-02-12T10:47:43;12.97;66.00
73149;SHT30;61346;48.930;2.266;2023-02-12T10:57:29;13.24;65.39
73149;SHT30;61346;48.930;2.266;2023-02-12T11:06:31;13.48;65.15
73149;SHT30;61346;48.930;2.266;2023-02-12T11:09:29;13.55;65.15
73149;SHT30;61346;48.930;2.266;2023-02-12T11:18:12;13.75;64.09
73149;SHT30;61346;48.930;2.266;2023-02-12T11:21:21;13.77;64.13
73149;SHT30;61346;48.930;2.266;2023-02-12T11:30:57;13.72;64.05
73149;SHT30;61346;48.930;2.266;2023-02-12T11:33:34;13.71;63.88
73149;SHT30;61346;48.930;2.266;2023-02-12T11:36:15;13.74;63.43
73149;SHT30;61346;48.930;2.266;2023-02-12T11:38:56;13.71;63.89
73149;SHT30;61346;48.930;2.266;2023-02-12T11:41:41;13.72;63.56
73149;SHT30;61346;48.930;2.266;2023-02-12T13:37:16;14.77;60.33
73149;SHT30;61346;48.930;2.266;2023-02-12T13:40:26;14.78;59.73
73149;SHT30;61346;48.930;2.266;2023-02-12T15:58:00;14.48;59.04
73149;SHT30;61346;48.930;2.266;2023-02-12T16:04:10;14.33;59.15
73149;SHT30;61346;48.930;2.266;2023-02-12T16:06:37;14.25;59.35
73149;SHT30;61346;48.930;2.266;2023-02-12T16:09:12;14.19;59.57
73149;SHT30;61346;48.930;2.266;2023-02-12T16:11:42;14.09;59.42
73149;SHT30;61346;48.930;2.266;2023-02-12T16:14:21;13.95;59.54
73149;SHT30;61346;48.930;2.266;2023-02-12T16:16:49;13.83;59.96
73149;SHT30;61346;48.930;2.266;2023-02-12T16:19:19;13.78;59.89
73149;SHT30;61346;48.930;2.266;2023-02-12T16:21:49;13.71;59.80
73149;SHT30;61346;48.930;2.266;2023-02-12T16:24:43;13.67;59.97
73149;SHT30;61346;48.930;2.266;2023-02-12T16:27:22;13.58;59.84
73149;SHT30;61346;48.930;2.266;2023-02-12T16:36:03;13.32;60.42
73149;SHT30;61346;48.930;2.266;2023-02-12T16:38:44;13.23;60.65
73149;SHT30;61346;48.930;2.266;2023-02-12T16:41:22;13.13;60.71
73149;SHT30;61346;48.930;2.266;2023-02-12T16:51:02;12.95;60.88
73149;SHT30;61346;48.930;2.266;2023-02-12T16:53:43;12.85;61.03
73149;SHT30;61346;48.930;2.266;2023-02-12T16:56:18;12.78;61.21
73149;SHT30;61346;48.930;2.266;2023-02-12T16:59:07;12.71;61.24
73149;SHT30;61346;48.930;2.266;2023-02-12T17:02:38;12.64;61.41
73149;SHT30;61346;48.930;2.266;2023-02-12T17:11:46;12.37;61.87
73149;SHT30;61346;48.930;2.266;2023-02-12T17:17:57;12.19;62.13
73149;SHT30;61346;48.930;2.266;2023-02-12T17:24:36;12.00;62.40
73149;SHT30;61346;48.930;2.266;2023-02-12T17:27:20;11.92;62.53
73149;SHT30;61346;48.930;2.266;2023-02-12T17:30:13;11.85;62.63
73149;SHT30;61346;48.930;2.266;2023-02-12T17:36:32;11.71;62.91
73149;SHT30;61346;48.930;2.266;2023-02-12T17:39:12;11.64;63.00
73149;SHT30;61346;48.930;2.266;2023-02-12T17:41:38;11.59;63.10
73149;SHT30;61346;48.930;2.266;2023-02-12T17:44:28;11.54;63.23
73149;SHT30;61346;48.930;2.266;2023-02-12T18:08:32;11.13;64.03
73149;SHT30;61346;48.930;2.266;2023-02-12T19:20:46;10.52;65.98
73149;SHT30;61346;48.930;2.266;2023-02-12T19:25:50;10.51;65.83
73149;SHT30;61346;48.930;2.266;2023-02-12T19:31:42;10.45;65.96
73149;SHT30;61346;48.930;2.266;2023-02-12T19:34:14;10.41;66.03
73149;SHT30;61346;48.930;2.266;2023-02-12T19:36:47;10.38;66.20
73149;SHT30;61346;48.930;2.266;2023-02-12T19:50:43;10.25;66.41
73149;SHT30;61346;48.930;2.266;2023-02-12T20:47:17;9.49;67.75
73149;SHT30;61346;48.930;2.266;2023-02-12T20:54:15;9.36;68.10
73149;SHT30;61346;48.930;2.266;2023-02-12T20:57:35;9.34;68.14
73149;SHT30;61346;48.930;2.266;2023-02-12T21:04:01;9.28;68.26
73149;SHT30;61346;48.930;2.266;2023-02-12T21:07:28;9.24;68.45
73149;SHT30;61346;48.930;2.266;2023-02-12T21:10:44;9.18;68.64
73149;SHT30;61346;48.930;2.266;2023-02-12T21:24:28;9.08;69.06
73149;SHT30;61346;48.930;2.266;2023-02-12T21:27:03;9.07;69.03
73149;SHT30;61346;48.930;2.266;2023-02-12T21:30:05;9.07;69.05
73149;SHT30;61346;48.930;2.266;2023-02-12T21:32:47;9.06;68.93
73149;SHT30;61346;48.930;2.266;2023-02-12T21:50:29;8.87;69.04
73149;SHT30;61346;48.930;2.266;2023-02-12T21:53:25;8.80;69.30
73149;SHT30;61346;48.930;2.266;2023-02-12T21:59:57;8.79;69.49
73149;SHT30;61346;48.930;2.266;2023-02-12T22:02:54;8.77;69.54
73149;SHT30;61346;48.930;2.266;2023-02-12T22:06:07;8.75;69.69
73149;SHT30;61346;48.930;2.266;2023-02-12T22:09:27;8.75;69.75
73149;SHT30;61346;48.930;2.266;2023-02-12T22:11:53;8.73;69.79
73149;SHT30;61346;48.930;2.266;2023-02-12T22:14:26;8.73;69.51
73149;SHT30;61346;48.930;2.266;2023-02-12T22:16:52;8.69;69.56
73149;SHT30;61346;48.930;2.266;2023-02-12T22:19:17;8.68;69.48
73149;SHT30;61346;48.930;2.266;2023-02-12T22:21:43;8.65;69.61
73149;SHT30;61346;48.930;2.266;2023-02-12T22:24:13;8.63;69.55
73149;SHT30;61346;48.930;2.266;2023-02-12T22:26:38;8.62;69.73
73149;SHT30;61346;48.930;2.266;2023-02-12T22:29:06;8.62;70.01
73149;SHT30;61346;48.930;2.266;2023-02-12T22:31:33;8.63;69.91
73149;SHT30;61346;48.930;2.266;2023-02-12T22:34:02;8.63;69.69
73149;SHT30;61346;48.930;2.266;2023-02-12T22:36:28;8.58;69.64
73149;SHT30;61346;48.930;2.266;2023-02-12T22:38:56;8.56;69.54
73149;SHT30;61346;48.930;2.266;2023-02-12T22:41:22;8.52;69.59
73149;SHT30;61346;48.930;2.266;2023-02-12T22:43:48;8.48;69.56
73149;SHT30;61346;48.930;2.266;2023-02-12T22:46:14;8.42;69.52
73149;SHT30;61346;48.930;2.266;2023-02-12T22:48:40;8.38;69.52
73149;SHT30;61346;48.930;2.266;2023-02-12T22:51:29;8.38;69.58
73149;SHT30;61346;48.930;2.266;2023-02-12T22:53:55;8.34;69.67
73149;SHT30;61346;48.930;2.266;2023-02-12T22:56:21;8.32;69.77
73149;SHT30;61346;48.930;2.266;2023-02-12T22:58:47;8.32;69.82
73149;SHT30;61346;48.930;2.266;2023-02-12T23:01:15;8.28;69.86
73149;SHT30;61346;48.930;2.266;2023-02-12T23:03:41;8.27;69.93
73149;SHT30;61346;48.930;2.266;2023-02-12T23:06:10;8.25;69.80
73149;SHT30;61346;48.930;2.266;2023-02-12T23:08:35;8.22;69.72
73149;SHT30;61346;48.930;2.266;2023-02-12T23:11:01;8.21;69.96
73149;SHT30;61346;48.930;2.266;2023-02-12T23:13:27;8.15;69.87
73149;SHT30;61346;48.930;2.266;2023-02-12T23:15:53;8.14;69.93
73149;SHT30;61346;48.930;2.266;2023-02-12T23:18:20;8.10;69.87
73149;SHT30;61346;48.930;2.266;2023-02-12T23:20:46;8.07;70.08
73149;SHT30;61346;48.930;2.266;2023-02-12T23:23:11;7.98;70.04
73149;SHT30;61346;48.930;2.266;2023-02-12T23:25:36;7.98;70.05
73149;SHT30;61346;48.930;2.266;2023-02-12T23:28:02;7.93;70.25
73149;SHT30;61346;48.930;2.266;2023-02-12T23:30:27;7.91;70.20
73149;SHT30;61346;48.930;2.266;2023-02-12T23:32:53;7.90;70.18
73149;SHT30;61346;48.930;2.266;2023-02-12T23:35:18;7.89;70.19
73149;SHT30;61346;48.930;2.266;2023-02-12T23:37:43;7.86;70.30
73149;SHT30;61346;48.930;2.266;2023-02-12T23:40:09;7.84;70.56
73149;SHT30;61346;48.930;2.266;2023-02-12T23:42:35;7.84;70.44
73149;SHT30;61346;48.930;2.266;2023-02-12T23:45:00;7.79;70.46
73149;SHT30;61346;48.930;2.266;2023-02-12T23:47:27;7.77;70.46
73149;SHT30;61346;48.930;2.266;2023-02-12T23:49:52;7.73;70.70
73149;SHT30;61346;48.930;2.266;2023-02-12T23:52:17;7.69;70.63
73149;SHT30;61346;48.930;2.266;2023-02-12T23:54:43;7.66;70.53
73149;SHT30;61346;48.930;2.266;2023-02-12T23:57:08;7.61;70.75
73149;SHT30;61346;48.930;2.266;2023-02-12T23:59:34;7.56;70.81
